首页
METAR-TAF:

METAR-TAF

机场 :

布兰太尔, 马拉维

纬度: 15-41S, 经度: 034-58E, 海拔: 766米

当前天气观测

该预报发布于1小时和14分钟前的10:00 UTC
风速7节,风向
温度 24°C
湿度 44%
气压 1023 hPa
能见度10公里或以上
散云层高于2000英尺

METAR: FWCL 261000Z 18007KT 9999 SCT020 24/11 Q1023 NOSIG

时间: 13:14 (11:14 UTC)

预报

该预报发布于6小时和14分钟前的05:00 UTC
预报有效从26日的 06点(UTC)到 27日的 12点(UTC)
风速9节,风向南转南东
能见度10公里或以上
少量云层高于2000英尺
散云层高于7000英尺
成为
从 26日的 08点(UTC)到 26日的 12点(UTC)
多云层高于2500英尺
成为
从 26日的 16点(UTC)到 26日的 18点(UTC)
能见度10公里或以上
1500米以下无云,无积雨云
成为
从 27日的 04点(UTC)到 27日的 06点(UTC)
少量云层高于1500英尺
散云层高于7000英尺

TAF: FWCL 260500Z 2606/2712 15009KT 9999 FEW020 SCT070 BECMG 2608/2612 BKN025 TX24/2612Z TN14/2703Z BECMG 2616/2618 CAVOK BECMG 2704/2706 FEW015 SCT070

超过4000个机场的气象观测和天气预报(METAR&TAF报告)。

可查询的气象台以黄色和红色小点在地图上表示。

将鼠标移到小点上方,可查看气象台名称。

然后点击查看天气观测和预报。

如需切换地图:点击带黑十字的绿色按钮放大地图;点击带横线的绿色按钮缩小地图;或者点击绿色箭头查看邻近地区的地图。


METAR-TAF: